sensor_id;sensor_type;location;lat;lon;timestamp;pressure;altitude;pressure_sealevel;temperature;humidity
3434;BME280;1730;41.932;25.548;2023-05-21T00:02:10;98930.09;;;18.43;100.00
3434;BME280;1730;41.932;25.548;2023-05-21T00:04:37;98299.53;;;14.35;100.00
3434;BME280;1730;41.932;25.548;2023-05-21T00:07:06;98885.00;;;18.21;100.00
3434;BME280;1730;41.932;25.548;2023-05-21T00:09:33;98881.88;;;18.24;100.00
3434;BME280;1730;41.932;25.548;2023-05-21T00:11:59;98939.56;;;18.34;100.00
3434;BME280;1730;41.932;25.548;2023-05-21T00:14:25;98486.66;;;16.04;100.00
3434;BME280;1730;41.932;25.548;2023-05-21T00:16:51;98350.88;;;14.97;100.00
3434;BME280;1730;41.932;25.548;2023-05-21T00:19:17;98905.09;;;18.60;100.00
3434;BME280;1730;41.932;25.548;2023-05-21T00:21:42;98878.84;;;18.59;100.00
3434;BME280;1730;41.932;25.548;2023-05-21T00:24:10;98938.47;;;18.62;100.00
3434;BME280;1730;41.932;25.548;2023-05-21T00:26:36;98888.66;;;18.73;100.00
3434;BME280;1730;41.932;25.548;2023-05-21T00:29:07;98886.13;;;18.71;100.00
3434;BME280;1730;41.932;25.548;2023-05-21T00:31:37;98879.87;;;18.58;100.00
3434;BME280;1730;41.932;25.548;2023-05-21T00:34:05;98879.44;;;18.67;100.00
3434;BME280;1730;41.932;25.548;2023-05-21T00:36:32;98896.91;;;18.60;100.00
3434;BME280;1730;41.932;25.548;2023-05-21T00:39:01;98865.59;;;18.62;100.00
3434;BME280;1730;41.932;25.548;2023-05-21T00:41:32;98874.44;;;18.51;100.00
3434;BME280;1730;41.932;25.548;2023-05-21T00:44:02;98875.06;;;18.60;100.00
3434;BME280;1730;41.932;25.548;2023-05-21T00:46:29;98877.78;;;18.60;100.00
3434;BME280;1730;41.932;25.548;2023-05-21T00:48:55;98880.94;;;18.57;100.00
3434;BME280;1730;41.932;25.548;2023-05-21T00:51:22;98870.00;;;18.63;100.00
3434;BME280;1730;41.932;25.548;2023-05-21T00:53:51;98873.19;;;18.54;100.00
3434;BME280;1730;41.932;25.548;2023-05-21T00:56:19;98866.25;;;18.44;100.00
3434;BME280;1730;41.932;25.548;2023-05-21T00:58:46;98881.00;;;18.37;100.00
3434;BME280;1730;41.932;25.548;2023-05-21T01:01:12;98882.06;;;18.29;100.00
3434;BME280;1730;41.932;25.548;2023-05-21T01:03:38;98867.78;;;18.34;100.00
3434;BME280;1730;41.932;25.548;2023-05-21T01:06:08;98871.97;;;18.30;100.00
3434;BME280;1730;41.932;25.548;2023-05-21T01:08:34;98899.47;;;18.35;100.00
3434;BME280;1730;41.932;25.548;2023-05-21T01:11:07;98863.16;;;18.28;100.00
3434;BME280;1730;41.932;25.548;2023-05-21T01:13:38;98858.31;;;18.30;100.00
3434;BME280;1730;41.932;25.548;2023-05-21T01:16:05;98861.25;;;18.35;100.00
3434;BME280;1730;41.932;25.548;2023-05-21T01:18:34;98858.75;;;18.27;100.00
3434;BME280;1730;41.932;25.548;2023-05-21T01:21:02;98230.03;;;14.27;100.00
3434;BME280;1730;41.932;25.548;2023-05-21T01:23:31;98858.50;;;18.35;100.00
3434;BME280;1730;41.932;25.548;2023-05-21T01:25:57;98243.84;;;14.26;100.00
3434;BME280;1730;41.932;25.548;2023-05-21T01:28:23;98298.03;;;15.06;100.00
3434;BME280;1730;41.932;25.548;2023-05-21T01:30:49;98288.13;;;14.53;100.00
3434;BME280;1730;41.932;25.548;2023-05-21T01:33:24;98366.38;;;15.49;100.00
3434;BME280;1730;41.932;25.548;2023-05-21T01:36:13;98854.72;;;18.42;100.00
3434;BME280;1730;41.932;25.548;2023-05-21T01:38:42;98920.25;;;18.42;100.00
3434;BME280;1730;41.932;25.548;2023-05-21T01:41:13;98437.72;;;15.77;100.00
3434;BME280;1730;41.932;25.548;2023-05-21T01:43:44;98842.56;;;18.32;100.00
3434;BME280;1730;41.932;25.548;2023-05-21T01:46:14;98900.53;;;18.34;100.00
3434;BME280;1730;41.932;25.548;2023-05-21T01:48:42;98383.56;;;15.56;100.00
3434;BME280;1730;41.932;25.548;2023-05-21T01:51:08;98838.94;;;18.44;100.00
3434;BME280;1730;41.932;25.548;2023-05-21T01:53:35;98837.25;;;18.50;100.00
3434;BME280;1730;41.932;25.548;2023-05-21T01:56:05;98811.91;;;18.30;100.00
3434;BME280;1730;41.932;25.548;2023-05-21T01:58:31;98841.69;;;18.44;100.00
3434;BME280;1730;41.932;25.548;2023-05-21T02:00:58;98899.66;;;18.40;100.00
3434;BME280;1730;41.932;25.548;2023-05-21T02:03:25;98844.00;;;18.41;100.00
3434;BME280;1730;41.932;25.548;2023-05-21T02:05:57;98840.88;;;18.37;100.00
3434;BME280;1730;41.932;25.548;2023-05-21T02:08:24;98812.94;;;18.35;100.00
3434;BME280;1730;41.932;25.548;2023-05-21T02:10:49;98323.75;;;15.17;100.00
3434;BME280;1730;41.932;25.548;2023-05-21T02:13:15;98815.97;;;18.21;100.00
3434;BME280;1730;41.932;25.548;2023-05-21T02:15:45;98844.47;;;18.31;100.00
3434;BME280;1730;41.932;25.548;2023-05-21T02:18:11;98398.19;;;15.68;100.00
3434;BME280;1730;41.932;25.548;2023-05-21T02:20:41;98843.81;;;18.42;100.00
3434;BME280;1730;41.932;25.548;2023-05-21T02:23:07;98845.75;;;18.29;100.00
3434;BME280;1730;41.932;25.548;2023-05-21T02:25:33;98314.56;;;15.05;100.00
3434;BME280;1730;41.932;25.548;2023-05-21T02:28:02;98853.53;;;18.25;100.00
3434;BME280;1730;41.932;25.548;2023-05-21T02:30:28;98303.63;;;14.59;100.00
3434;BME280;1730;41.932;25.548;2023-05-21T02:32:54;98160.12;;;14.10;100.00
3434;BME280;1730;41.932;25.548;2023-05-21T02:35:19;98155.63;;;13.63;100.00
3434;BME280;1730;41.932;25.548;2023-05-21T02:37:45;98210.19;;;14.07;100.00
3434;BME280;1730;41.932;25.548;2023-05-21T02:40:13;98740.16;;;17.39;100.00
3434;BME280;1730;41.932;25.548;2023-05-21T02:42:39;98858.34;;;18.23;100.00
3434;BME280;1730;41.932;25.548;2023-05-21T02:45:10;98873.66;;;18.37;100.00
3434;BME280;1730;41.932;25.548;2023-05-21T02:47:37;98860.88;;;18.25;100.00
3434;BME280;1730;41.932;25.548;2023-05-21T02:50:05;98862.56;;;18.19;100.00
3434;BME280;1730;41.932;25.548;2023-05-21T02:52:32;98858.75;;;18.27;100.00
3434;BME280;1730;41.932;25.548;2023-05-21T02:54:58;98859.34;;;18.35;100.00
3434;BME280;1730;41.932;25.548;2023-05-21T02:57:24;98865.91;;;18.28;100.00
3434;BME280;1730;41.932;25.548;2023-05-21T02:59:50;98250.59;;;14.50;100.00
3434;BME280;1730;41.932;25.548;2023-05-21T03:02:16;98410.44;;;15.31;100.00
3434;BME280;1730;41.932;25.548;2023-05-21T03:04:42;98876.00;;;18.21;100.00
3434;BME280;1730;41.932;25.548;2023-05-21T03:07:12;98872.41;;;18.27;100.00
3434;BME280;1730;41.932;25.548;2023-05-21T03:09:39;98364.28;;;15.12;100.00
3434;BME280;1730;41.932;25.548;2023-05-21T03:12:07;98873.44;;;18.32;100.00
3434;BME280;1730;41.932;25.548;2023-05-21T03:14:33;98445.00;;;15.64;100.00
3434;BME280;1730;41.932;25.548;2023-05-21T03:16:59;98891.38;;;18.02;100.00
3434;BME280;1730;41.932;25.548;2023-05-21T03:19:25;98304.75;;;13.89;100.00
3434;BME280;1730;41.932;25.548;2023-05-21T03:21:51;98351.97;;;14.49;100.00
3434;BME280;1730;41.932;25.548;2023-05-21T03:24:19;98304.16;;;14.34;100.00
3434;BME280;1730;41.932;25.548;2023-05-21T03:26:45;98873.87;;;18.29;100.00
3434;BME280;1730;41.932;25.548;2023-05-21T03:29:12;98292.53;;;14.54;100.00
3434;BME280;1730;41.932;25.548;2023-05-21T03:31:39;98910.00;;;18.25;100.00
3434;BME280;1730;41.932;25.548;2023-05-21T03:34:05;98388.72;;;15.31;100.00
3434;BME280;1730;41.932;25.548;2023-05-21T03:36:32;98286.69;;;14.43;100.00
3434;BME280;1730;41.932;25.548;2023-05-21T03:38:59;98270.00;;;14.47;100.00
3434;BME280;1730;41.932;25.548;2023-05-21T03:41:25;98852.16;;;18.47;100.00
3434;BME280;1730;41.932;25.548;2023-05-21T03:43:51;98279.41;;;14.64;100.00
3434;BME280;1730;41.932;25.548;2023-05-21T03:46:18;98842.97;;;18.42;100.00
3434;BME280;1730;41.932;25.548;2023-05-21T03:48:43;98239.81;;;14.22;100.00
3434;BME280;1730;41.932;25.548;2023-05-21T03:51:10;98519.44;;;16.55;100.00
3434;BME280;1730;41.932;25.548;2023-05-21T03:53:37;98428.06;;;16.14;100.00
3434;BME280;1730;41.932;25.548;2023-05-21T03:56:03;98405.47;;;15.94;100.00
3434;BME280;1730;41.932;25.548;2023-05-21T03:58:29;98258.56;;;14.77;100.00
3434;BME280;1730;41.932;25.548;2023-05-21T04:00:55;98814.53;;;18.63;100.00
3434;BME280;1730;41.932;25.548;2023-05-21T04:03:22;98374.94;;;15.99;100.00
3434;BME280;1730;41.932;25.548;2023-05-21T04:05:48;98363.50;;;15.51;100.00
3434;BME280;1730;41.932;25.548;2023-05-21T04:08:13;98251.47;;;14.89;100.00
3434;BME280;1730;41.932;25.548;2023-05-21T04:10:40;98868.78;;;18.53;100.00
3434;BME280;1730;41.932;25.548;2023-05-21T04:13:06;98356.06;;;14.92;100.00
3434;BME280;1730;41.932;25.548;2023-05-21T04:15:31;98370.87;;;14.76;100.00
3434;BME280;1730;41.932;25.548;2023-05-21T04:18:00;98906.16;;;18.45;100.00
3434;BME280;1730;41.932;25.548;2023-05-21T04:20:26;98305.50;;;14.65;100.00
3434;BME280;1730;41.932;25.548;2023-05-21T04:22:52;99053.81;;;18.51;100.00
3434;BME280;1730;41.932;25.548;2023-05-21T04:25:18;98387.75;;;14.24;100.00
3434;BME280;1730;41.932;25.548;2023-05-21T04:27:46;99026.53;;;18.11;100.00
3434;BME280;1730;41.932;25.548;2023-05-21T04:30:12;98875.16;;;17.02;100.00
3434;BME280;1730;41.932;25.548;2023-05-21T04:32:38;99101.09;;;18.25;100.00
3434;BME280;1730;41.932;25.548;2023-05-21T04:35:06;98652.28;;;15.04;100.00
3434;BME280;1730;41.932;25.548;2023-05-21T04:37:32;99200.59;;;18.22;100.00
3434;BME280;1730;41.932;25.548;2023-05-21T04:40:00;99252.38;;;18.57;100.00
3434;BME280;1730;41.932;25.548;2023-05-21T04:42:26;99262.19;;;18.38;100.00
3434;BME280;1730;41.932;25.548;2023-05-21T04:44:52;99213.09;;;18.58;100.00
3434;BME280;1730;41.932;25.548;2023-05-21T04:47:20;98688.78;;;15.01;100.00
3434;BME280;1730;41.932;25.548;2023-05-21T04:49:46;99167.75;;;17.89;100.00
3434;BME280;1730;41.932;25.548;2023-05-21T04:52:12;98904.00;;;16.01;100.00
3434;BME280;1730;41.932;25.548;2023-05-21T04:54:39;98770.38;;;15.42;100.00
3434;BME280;1730;41.932;25.548;2023-05-21T04:57:06;98590.72;;;14.27;100.00
3434;BME280;1730;41.932;25.548;2023-05-21T04:59:34;99219.34;;;18.38;100.00
3434;BME280;1730;41.932;25.548;2023-05-21T05:02:00;99216.94;;;18.09;100.00
3434;BME280;1730;41.932;25.548;2023-05-21T05:04:25;98758.66;;;15.14;100.00
3434;BME280;1730;41.932;25.548;2023-05-21T05:06:53;99081.06;;;16.90;100.00
3434;BME280;1730;41.932;25.548;2023-05-21T05:09:21;99267.75;;;18.17;100.00
3434;BME280;1730;41.932;25.548;2023-05-21T05:11:50;99294.00;;;18.11;100.00
3434;BME280;1730;41.932;25.548;2023-05-21T05:14:16;99382.19;;;18.12;100.00
3434;BME280;1730;41.932;25.548;2023-05-21T05:16:42;99439.25;;;18.07;100.00
3434;BME280;1730;41.932;25.548;2023-05-21T05:19:07;99517.34;;;17.86;100.00
3434;BME280;1730;41.932;25.548;2023-05-21T05:21:33;99064.34;;;15.16;100.00
3434;BME280;1730;41.932;25.548;2023-05-21T05:23:59;99026.44;;;14.94;100.00
3434;BME280;1730;41.932;25.548;2023-05-21T05:26:25;99071.59;;;15.09;100.00
3434;BME280;1730;41.932;25.548;2023-05-21T05:28:51;99531.59;;;18.03;100.00
3434;BME280;1730;41.932;25.548;2023-05-21T05:31:16;99471.25;;;18.19;100.00
3434;BME280;1730;41.932;25.548;2023-05-21T05:33:43;99452.69;;;18.08;100.00
3434;BME280;1730;41.932;25.548;2023-05-21T05:36:09;99485.53;;;18.21;100.00
3434;BME280;1730;41.932;25.548;2023-05-21T05:38:34;99530.34;;;18.06;100.00
3434;BME280;1730;41.932;25.548;2023-05-21T05:41:00;99636.19;;;18.10;100.00
3434;BME280;1730;41.932;25.548;2023-05-21T05:43:30;99572.66;;;18.16;100.00
3434;BME280;1730;41.932;25.548;2023-05-21T05:45:55;99626.97;;;18.11;100.00
3434;BME280;1730;41.932;25.548;2023-05-21T05:48:21;99640.69;;;18.18;100.00
3434;BME280;1730;41.932;25.548;2023-05-21T05:50:47;99617.63;;;18.20;100.00
3434;BME280;1730;41.932;25.548;2023-05-21T05:53:13;99612.47;;;18.11;100.00
3434;BME280;1730;41.932;25.548;2023-05-21T05:55:45;99691.91;;;18.16;100.00
3434;BME280;1730;41.932;25.548;2023-05-21T05:58:12;99707.03;;;18.39;100.00
3434;BME280;1730;41.932;25.548;2023-05-21T06:00:39;99756.19;;;18.39;100.00
3434;BME280;1730;41.932;25.548;2023-05-21T06:03:05;99784.19;;;18.41;100.00
3434;BME280;1730;41.932;25.548;2023-05-21T06:05:31;99814.84;;;18.58;100.00
3434;BME280;1730;41.932;25.548;2023-05-21T06:07:57;99775.13;;;18.41;100.00
3434;BME280;1730;41.932;25.548;2023-05-21T06:10:23;99756.31;;;18.67;100.00
3434;BME280;1730;41.932;25.548;2023-05-21T06:12:50;99739.78;;;18.54;100.00
3434;BME280;1730;41.932;25.548;2023-05-21T06:15:16;99700.62;;;18.47;100.00
3434;BME280;1730;41.932;25.548;2023-05-21T06:17:53;99549.44;;;18.55;100.00
3434;BME280;1730;41.932;25.548;2023-05-21T06:20:19;99534.09;;;18.54;100.00
3434;BME280;1730;41.932;25.548;2023-05-21T06:22:45;99528.78;;;18.73;100.00
3434;BME280;1730;41.932;25.548;2023-05-21T06:25:11;99448.28;;;18.76;100.00
3434;BME280;1730;41.932;25.548;2023-05-21T06:27:37;99486.34;;;18.77;100.00
3434;BME280;1730;41.932;25.548;2023-05-21T06:30:03;99471.09;;;18.62;100.00
3434;BME280;1730;41.932;25.548;2023-05-21T06:32:33;99485.31;;;18.51;100.00
3434;BME280;1730;41.932;25.548;2023-05-21T06:35:00;99542.19;;;18.68;100.00
3434;BME280;1730;41.932;25.548;2023-05-21T06:37:26;99460.47;;;18.73;100.00
3434;BME280;1730;41.932;25.548;2023-05-21T06:39:53;99430.59;;;18.72;100.00
3434;BME280;1730;41.932;25.548;2023-05-21T06:42:19;99474.06;;;18.60;100.00
3434;BME280;1730;41.932;25.548;2023-05-21T06:44:45;99513.47;;;18.51;100.00
3434;BME280;1730;41.932;25.548;2023-05-21T06:47:11;99509.91;;;18.51;100.00
3434;BME280;1730;41.932;25.548;2023-05-21T06:49:41;99478.03;;;18.58;100.00
3434;BME280;1730;41.932;25.548;2023-05-21T06:52:50;99448.47;;;18.74;100.00
3434;BME280;1730;41.932;25.548;2023-05-21T06:55:28;99502.31;;;18.80;100.00
3434;BME280;1730;41.932;25.548;2023-05-21T06:58:00;99505.53;;;18.97;100.00
3434;BME280;1730;41.932;25.548;2023-05-21T07:16:50;99382.63;;;19.36;100.00
3434;BME280;1730;41.932;25.548;2023-05-21T07:19:16;99324.56;;;19.34;100.00
3434;BME280;1730;41.932;25.548;2023-05-21T07:21:41;98984.03;;;17.36;100.00
3434;BME280;1730;41.932;25.548;2023-05-21T07:24:08;99372.94;;;19.41;100.00
3434;BME280;1730;41.932;25.548;2023-05-21T07:26:35;98683.84;;;15.39;100.00
3434;BME280;1730;41.932;25.548;2023-05-21T07:29:01;98778.31;;;16.06;100.00
3434;BME280;1730;41.932;25.548;2023-05-21T07:31:30;99339.31;;;19.60;100.00
3434;BME280;1730;41.932;25.548;2023-05-21T07:33:59;99225.50;;;19.46;100.00
3434;BME280;1730;41.932;25.548;2023-05-21T07:36:26;99206.03;;;19.80;100.00
3434;BME280;1730;41.932;25.548;2023-05-21T07:38:54;98780.66;;;17.42;100.00
3434;BME280;1730;41.932;25.548;2023-05-21T07:41:21;98736.53;;;16.33;100.00
3434;BME280;1730;41.932;25.548;2023-05-21T07:43:49;99234.97;;;20.07;100.00
3434;BME280;1730;41.932;25.548;2023-05-21T07:46:14;98652.87;;;16.75;100.00
3434;BME280;1730;41.932;25.548;2023-05-21T07:48:44;98528.69;;;16.34;100.00
3434;BME280;1730;41.932;25.548;2023-05-21T07:53:52;99049.00;;;20.37;100.00
3434;BME280;1730;41.932;25.548;2023-05-21T07:56:18;98591.19;;;17.20;100.00
3434;BME280;1730;41.932;25.548;2023-05-21T07:58:47;99097.91;;;20.58;100.00
3434;BME280;1730;41.932;25.548;2023-05-21T08:01:41;99047.28;;;20.43;100.00
3434;BME280;1730;41.932;25.548;2023-05-21T08:12:05;98969.09;;;21.01;100.00
3434;BME280;1730;41.932;25.548;2023-05-21T08:14:34;98810.81;;;20.31;100.00
3434;BME280;1730;41.932;25.548;2023-05-21T08:17:00;98950.44;;;20.92;100.00
3434;BME280;1730;41.932;25.548;2023-05-21T08:19:27;98357.91;;;17.19;100.00
3434;BME280;1730;41.932;25.548;2023-05-21T08:21:53;98928.34;;;21.35;100.00
3434;BME280;1730;41.932;25.548;2023-05-21T08:24:20;98377.00;;;17.12;100.00
3434;BME280;1730;41.932;25.548;2023-05-21T08:29:33;98916.25;;;20.76;100.00
3434;BME280;1730;41.932;25.548;2023-05-21T08:31:59;98898.88;;;20.82;100.00
3434;BME280;1730;41.932;25.548;2023-05-21T08:34:25;98886.25;;;20.81;100.00
3434;BME280;1730;41.932;25.548;2023-05-21T08:37:20;98890.19;;;20.85;100.00
3434;BME280;1730;41.932;25.548;2023-05-21T08:39:48;98949.97;;;21.13;100.00
3434;BME280;1730;41.932;25.548;2023-05-21T08:47:27;98886.88;;;21.43;100.00
3434;BME280;1730;41.932;25.548;2023-05-21T08:57:48;98872.66;;;22.11;100.00
3434;BME280;1730;41.932;25.548;2023-05-21T09:00:16;98329.31;;;18.57;100.00
3434;BME280;1730;41.932;25.548;2023-05-21T09:02:45;98857.97;;;22.05;100.00
3434;BME280;1730;41.932;25.548;2023-05-21T09:05:12;98303.41;;;17.93;100.00
3434;BME280;1730;41.932;25.548;2023-05-21T09:07:58;98872.37;;;21.89;100.00
3434;BME280;1730;41.932;25.548;2023-05-21T09:10:38;98348.59;;;18.25;100.00
3434;BME280;1730;41.932;25.548;2023-05-21T09:13:04;98871.09;;;22.03;100.00
3434;BME280;1730;41.932;25.548;2023-05-21T09:15:30;98868.97;;;21.93;100.00
3434;BME280;1730;41.932;25.548;2023-05-21T09:18:22;98874.19;;;21.95;100.00
3434;BME280;1730;41.932;25.548;2023-05-21T09:20:48;98303.78;;;17.96;100.00
3434;BME280;1730;41.932;25.548;2023-05-21T09:23:16;98888.66;;;22.14;100.00
3434;BME280;1730;41.932;25.548;2023-05-21T09:25:46;98884.94;;;22.31;100.00
3434;BME280;1730;41.932;25.548;2023-05-21T09:28:15;98339.34;;;18.92;100.00
3434;BME280;1730;41.932;25.548;2023-05-21T09:30:44;98866.19;;;22.17;100.00
3434;BME280;1730;41.932;25.548;2023-05-21T09:33:10;98865.72;;;21.85;100.00
3434;BME280;1730;41.932;25.548;2023-05-21T09:35:36;98851.97;;;22.08;100.00
3434;BME280;1730;41.932;25.548;2023-05-21T09:38:10;98856.38;;;21.86;100.00
3434;BME280;1730;41.932;25.548;2023-05-21T09:40:44;98431.56;;;18.61;100.00
3434;BME280;1730;41.932;25.548;2023-05-21T09:43:13;98855.41;;;21.69;100.00
3434;BME280;1730;41.932;25.548;2023-05-21T09:45:58;98298.31;;;17.96;100.00
3434;BME280;1730;41.932;25.548;2023-05-21T09:48:42;98860.63;;;21.47;100.00
3434;BME280;1730;41.932;25.548;2023-05-21T09:51:19;98859.22;;;21.68;100.00
3434;BME280;1730;41.932;25.548;2023-05-21T09:54:10;98862.50;;;21.23;100.00
3434;BME280;1730;41.932;25.548;2023-05-21T09:57:00;98337.13;;;18.17;100.00
3434;BME280;1730;41.932;25.548;2023-05-21T09:59:38;98844.53;;;21.50;100.00
3434;BME280;1730;41.932;25.548;2023-05-21T10:02:27;98859.34;;;21.20;100.00
3434;BME280;1730;41.932;25.548;2023-05-21T10:04:58;98754.03;;;20.19;100.00
3434;BME280;1730;41.932;25.548;2023-05-21T10:07:43;98863.22;;;20.71;100.00
3434;BME280;1730;41.932;25.548;2023-05-21T10:10:20;98872.97;;;20.96;100.00
3434;BME280;1730;41.932;25.548;2023-05-21T10:12:53;98871.91;;;20.97;100.00
3434;BME280;1730;41.932;25.548;2023-05-21T10:15:23;98635.94;;;19.68;100.00
3434;BME280;1730;41.932;25.548;2023-05-21T10:17:54;98870.75;;;21.05;100.00
3434;BME280;1730;41.932;25.548;2023-05-21T10:20:21;98872.16;;;21.37;100.00
3434;BME280;1730;41.932;25.548;2023-05-21T10:22:49;98862.41;;;21.11;100.00
3434;BME280;1730;41.932;25.548;2023-05-21T10:25:17;98305.03;;;17.76;100.00
3434;BME280;1730;41.932;25.548;2023-05-21T10:27:45;98352.03;;;17.96;100.00
3434;BME280;1730;41.932;25.548;2023-05-21T10:30:11;98270.72;;;18.05;100.00
3434;BME280;1730;41.932;25.548;2023-05-21T10:32:40;98852.78;;;21.85;100.00
3434;BME280;1730;41.932;25.548;2023-05-21T10:37:44;98849.94;;;21.92;100.00
3434;BME280;1730;41.932;25.548;2023-05-21T10:40:10;98284.66;;;17.78;100.00
3434;BME280;1730;41.932;25.548;2023-05-21T10:42:55;98298.78;;;17.93;100.00
3434;BME280;1730;41.932;25.548;2023-05-21T10:51:15;98457.66;;;19.11;100.00
3434;BME280;1730;41.932;25.548;2023-05-21T10:54:13;98904.66;;;21.93;100.00
3434;BME280;1730;41.932;25.548;2023-05-21T10:59:42;98287.56;;;18.38;100.00
3434;BME280;1730;41.932;25.548;2023-05-21T11:02:13;98853.66;;;22.32;100.00
3434;BME280;1730;41.932;25.548;2023-05-21T11:04:40;98284.31;;;18.77;100.00
3434;BME280;1730;41.932;25.548;2023-05-21T11:07:07;98844.00;;;22.81;100.00
3434;BME280;1730;41.932;25.548;2023-05-21T11:17:38;98829.75;;;24.13;100.00
3434;BME280;1730;41.932;25.548;2023-05-21T11:20:06;98828.00;;;24.07;100.00
3434;BME280;1730;41.932;25.548;2023-05-21T11:25:17;98823.19;;;24.36;100.00
3434;BME280;1730;41.932;25.548;2023-05-21T11:27:49;98930.38;;;24.15;100.00
3434;BME280;1730;41.932;25.548;2023-05-21T11:30:17;98786.28;;;23.98;100.00
3434;BME280;1730;41.932;25.548;2023-05-21T11:35:56;98897.16;;;24.22;100.00
3434;BME280;1730;41.932;25.548;2023-05-21T11:41:18;98816.44;;;24.27;100.00
3434;BME280;1730;41.932;25.548;2023-05-21T11:43:44;98291.47;;;20.64;100.00
3434;BME280;1730;41.932;25.548;2023-05-21T11:46:11;98755.34;;;23.74;100.00
3434;BME280;1730;41.932;25.548;2023-05-21T11:48:39;98294.37;;;20.46;100.00
3434;BME280;1730;41.932;25.548;2023-05-21T11:51:08;98823.16;;;24.31;100.00
3434;BME280;1730;41.932;25.548;2023-05-21T11:53:34;98814.59;;;24.54;100.00
3434;BME280;1730;41.932;25.548;2023-05-21T11:56:03;98810.44;;;24.51;100.00
3434;BME280;1730;41.932;25.548;2023-05-21T11:58:30;98230.13;;;20.65;100.00
3434;BME280;1730;41.932;25.548;2023-05-21T12:00:57;98781.16;;;24.07;100.00
3434;BME280;1730;41.932;25.548;2023-05-21T12:03:23;98798.59;;;24.51;100.00
3434;BME280;1730;41.932;25.548;2023-05-21T12:05:52;98804.47;;;24.38;100.00
3434;BME280;1730;41.932;25.548;2023-05-21T12:08:24;98167.66;;;20.51;100.00
3434;BME280;1730;41.932;25.548;2023-05-21T12:10:57;98754.62;;;24.39;100.00
3434;BME280;1730;41.932;25.548;2023-05-21T12:13:24;98791.09;;;24.46;100.00
3434;BME280;1730;41.932;25.548;2023-05-21T12:15:59;98304.59;;;20.91;100.00
3434;BME280;1730;41.932;25.548;2023-05-21T12:18:26;98832.75;;;24.11;100.00
3434;BME280;1730;41.932;25.548;2023-05-21T12:20:55;98203.09;;;20.29;100.00
3434;BME280;1730;41.932;25.548;2023-05-21T12:23:25;98783.28;;;24.38;100.00
3434;BME280;1730;41.932;25.548;2023-05-21T12:25:52;98263.25;;;20.64;100.00
3434;BME280;1730;41.932;25.548;2023-05-21T12:30:49;98782.53;;;23.88;100.00
3434;BME280;1730;41.932;25.548;2023-05-21T12:33:15;98191.34;;;19.77;100.00
3434;BME280;1730;41.932;25.548;2023-05-21T12:35:46;98319.53;;;20.83;100.00
3434;BME280;1730;41.932;25.548;2023-05-21T12:38:14;98775.25;;;23.98;100.00
3434;BME280;1730;41.932;25.548;2023-05-21T12:43:37;98157.41;;;19.90;100.00
3434;BME280;1730;41.932;25.548;2023-05-21T12:46:03;98767.88;;;24.20;100.00
3434;BME280;1730;41.932;25.548;2023-05-21T12:48:29;98737.34;;;24.49;100.00
3434;BME280;1730;41.932;25.548;2023-05-21T12:51:10;98755.88;;;24.80;100.00
3434;BME280;1730;41.932;25.548;2023-05-21T12:53:36;98743.63;;;24.66;100.00
3434;BME280;1730;41.932;25.548;2023-05-21T12:56:13;98752.56;;;24.30;100.00
3434;BME280;1730;41.932;25.548;2023-05-21T12:58:54;98742.84;;;24.49;100.00
3434;BME280;1730;41.932;25.548;2023-05-21T13:01:20;98232.81;;;20.77;100.00
3434;BME280;1730;41.932;25.548;2023-05-21T13:03:46;98211.22;;;20.36;100.00
3434;BME280;1730;41.932;25.548;2023-05-21T13:06:13;98186.25;;;20.49;100.00
3434;BME280;1730;41.932;25.548;2023-05-21T13:08:39;98693.62;;;24.14;100.00
3434;BME280;1730;41.932;25.548;2023-05-21T13:11:05;98720.94;;;24.37;100.00
3434;BME280;1730;41.932;25.548;2023-05-21T13:13:31;98146.25;;;20.48;100.00
3434;BME280;1730;41.932;25.548;2023-05-21T13:15:57;98725.00;;;24.78;100.00
3434;BME280;1730;41.932;25.548;2023-05-21T13:18:25;98730.75;;;24.50;100.00
3434;BME280;1730;41.932;25.548;2023-05-21T13:21:20;98198.19;;;20.88;100.00
3434;BME280;1730;41.932;25.548;2023-05-21T13:26:25;98315.50;;;21.47;100.00
3434;BME280;1730;41.932;25.548;2023-05-21T13:28:51;98721.19;;;23.92;100.00
3434;BME280;1730;41.932;25.548;2023-05-21T13:31:17;98722.13;;;24.19;100.00
3434;BME280;1730;41.932;25.548;2023-05-21T13:33:42;98169.97;;;20.42;100.00
3434;BME280;1730;41.932;25.548;2023-05-21T13:36:08;98241.94;;;21.44;100.00
3434;BME280;1730;41.932;25.548;2023-05-21T13:38:34;98124.31;;;20.19;100.00
3434;BME280;1730;41.932;25.548;2023-05-21T13:41:01;98719.28;;;24.36;100.00
3434;BME280;1730;41.932;25.548;2023-05-21T13:43:30;98206.00;;;20.79;100.00
3434;BME280;1730;41.932;25.548;2023-05-21T13:46:09;98712.31;;;24.29;100.00
3434;BME280;1730;41.932;25.548;2023-05-21T13:48:35;98165.69;;;20.63;100.00
3434;BME280;1730;41.932;25.548;2023-05-21T13:51:00;98193.28;;;20.73;100.00
3434;BME280;1730;41.932;25.548;2023-05-21T13:53:27;98711.53;;;24.11;100.00
3434;BME280;1730;41.932;25.548;2023-05-21T13:55:56;98731.84;;;24.27;100.00
3434;BME280;1730;41.932;25.548;2023-05-21T13:58:28;98749.88;;;24.35;100.00
3434;BME280;1730;41.932;25.548;2023-05-21T14:01:00;98723.78;;;24.20;100.00
3434;BME280;1730;41.932;25.548;2023-05-21T14:03:39;98723.53;;;24.22;100.00
3434;BME280;1730;41.932;25.548;2023-05-21T14:06:05;98729.28;;;23.99;100.00
3434;BME280;1730;41.932;25.548;2023-05-21T14:08:33;98464.09;;;22.34;100.00
3434;BME280;1730;41.932;25.548;2023-05-21T14:11:20;98725.97;;;24.18;100.00
3434;BME280;1730;41.932;25.548;2023-05-21T14:13:59;98065.44;;;20.17;100.00
3434;BME280;1730;41.932;25.548;2023-05-21T14:16:29;98132.16;;;20.56;100.00
3434;BME280;1730;41.932;25.548;2023-05-21T14:24:15;98691.66;;;24.31;100.00
3434;BME280;1730;41.932;25.548;2023-05-21T14:26:44;98686.09;;;24.26;100.00
3434;BME280;1730;41.932;25.548;2023-05-21T14:29:12;98658.03;;;24.07;100.00
3434;BME280;1730;41.932;25.548;2023-05-21T14:31:39;98696.31;;;23.87;100.00
3434;BME280;1730;41.932;25.548;2023-05-21T14:34:20;98083.47;;;19.73;100.00